sensor_id;sensor_type;location;lat;lon;timestamp;P1;durP1;ratioP1;P2;durP2;ratioP2
4744;SDS011;2386;42.138;24.746;2023-02-18T00:01:54;207.73;;;74.23;;
4744;SDS011;2386;42.138;24.746;2023-02-18T00:04:19;236.13;;;86.47;;
4744;SDS011;2386;42.138;24.746;2023-02-18T00:06:45;209.57;;;77.47;;
4744;SDS011;2386;42.138;24.746;2023-02-18T00:09:10;212.00;;;78.30;;
4744;SDS011;2386;42.138;24.746;2023-02-18T00:11:38;208.13;;;79.87;;
4744;SDS011;2386;42.138;24.746;2023-02-18T00:14:05;208.20;;;74.77;;
4744;SDS011;2386;42.138;24.746;2023-02-18T00:16:34;221.37;;;79.50;;
4744;SDS011;2386;42.138;24.746;2023-02-18T00:19:01;215.00;;;80.33;;
4744;SDS011;2386;42.138;24.746;2023-02-18T00:21:28;212.73;;;78.00;;
4744;SDS011;2386;42.138;24.746;2023-02-18T00:23:54;198.97;;;73.70;;
4744;SDS011;2386;42.138;24.746;2023-02-18T00:26:20;206.73;;;77.07;;
4744;SDS011;2386;42.138;24.746;2023-02-18T00:28:46;208.67;;;75.90;;
4744;SDS011;2386;42.138;24.746;2023-02-18T00:31:24;210.20;;;77.37;;
4744;SDS011;2386;42.138;24.746;2023-02-18T00:34:00;221.83;;;81.17;;
4744;SDS011;2386;42.138;24.746;2023-02-18T00:36:26;208.13;;;74.63;;
4744;SDS011;2386;42.138;24.746;2023-02-18T00:38:53;212.30;;;76.77;;
4744;SDS011;2386;42.138;24.746;2023-02-18T00:41:22;214.60;;;76.93;;
4744;SDS011;2386;42.138;24.746;2023-02-18T00:43:50;226.53;;;80.00;;
4744;SDS011;2386;42.138;24.746;2023-02-18T00:46:15;208.63;;;77.33;;
4744;SDS011;2386;42.138;24.746;2023-02-18T00:48:41;207.00;;;76.57;;
4744;SDS011;2386;42.138;24.746;2023-02-18T00:51:06;211.80;;;76.07;;
4744;SDS011;2386;42.138;24.746;2023-02-18T00:53:33;213.90;;;73.93;;
4744;SDS011;2386;42.138;24.746;2023-02-18T00:55:58;201.33;;;72.57;;
4744;SDS011;2386;42.138;24.746;2023-02-18T00:58:24;207.27;;;74.10;;
4744;SDS011;2386;42.138;24.746;2023-02-18T01:00:50;215.20;;;75.00;;
4744;SDS011;2386;42.138;24.746;2023-02-18T01:03:16;208.97;;;75.17;;
4744;SDS011;2386;42.138;24.746;2023-02-18T01:05:41;216.50;;;77.20;;
4744;SDS011;2386;42.138;24.746;2023-02-18T01:08:07;222.90;;;74.33;;
4744;SDS011;2386;42.138;24.746;2023-02-18T01:10:34;215.80;;;73.77;;
4744;SDS011;2386;42.138;24.746;2023-02-18T01:13:04;245.10;;;79.07;;
4744;SDS011;2386;42.138;24.746;2023-02-18T01:15:29;211.37;;;71.80;;
4744;SDS011;2386;42.138;24.746;2023-02-18T01:17:55;220.13;;;74.23;;
4744;SDS011;2386;42.138;24.746;2023-02-18T01:20:20;215.60;;;74.57;;
4744;SDS011;2386;42.138;24.746;2023-02-18T01:22:46;222.90;;;74.83;;
4744;SDS011;2386;42.138;24.746;2023-02-18T01:25:12;215.33;;;74.47;;
4744;SDS011;2386;42.138;24.746;2023-02-18T01:27:38;174.53;;;69.90;;
4744;SDS011;2386;42.138;24.746;2023-02-18T01:30:05;188.97;;;71.57;;
4744;SDS011;2386;42.138;24.746;2023-02-18T01:32:32;192.77;;;74.33;;
4744;SDS011;2386;42.138;24.746;2023-02-18T01:34:59;197.90;;;71.30;;
4744;SDS011;2386;42.138;24.746;2023-02-18T01:37:26;187.63;;;70.37;;
4744;SDS011;2386;42.138;24.746;2023-02-18T01:39:51;185.23;;;69.90;;
4744;SDS011;2386;42.138;24.746;2023-02-18T01:42:21;202.93;;;71.57;;
4744;SDS011;2386;42.138;24.746;2023-02-18T01:44:49;199.40;;;70.17;;
4744;SDS011;2386;42.138;24.746;2023-02-18T01:47:16;186.33;;;68.67;;
4744;SDS011;2386;42.138;24.746;2023-02-18T01:49:42;199.20;;;71.30;;
4744;SDS011;2386;42.138;24.746;2023-02-18T01:52:12;225.97;;;73.53;;
4744;SDS011;2386;42.138;24.746;2023-02-18T01:54:42;204.87;;;72.13;;
4744;SDS011;2386;42.138;24.746;2023-02-18T01:57:16;197.90;;;70.53;;
4744;SDS011;2386;42.138;24.746;2023-02-18T01:59:49;207.37;;;73.57;;
4744;SDS011;2386;42.138;24.746;2023-02-18T02:02:20;193.87;;;68.00;;
4744;SDS011;2386;42.138;24.746;2023-02-18T02:04:47;201.00;;;69.73;;
4744;SDS011;2386;42.138;24.746;2023-02-18T02:07:13;193.17;;;68.27;;
4744;SDS011;2386;42.138;24.746;2023-02-18T02:09:39;191.13;;;65.70;;
4744;SDS011;2386;42.138;24.746;2023-02-18T02:12:24;193.97;;;67.80;;
4744;SDS011;2386;42.138;24.746;2023-02-18T02:15:19;197.83;;;68.20;;
4744;SDS011;2386;42.138;24.746;2023-02-18T02:23:23;201.07;;;69.50;;
4744;SDS011;2386;42.138;24.746;2023-02-18T02:26:08;199.33;;;69.57;;
4744;SDS011;2386;42.138;24.746;2023-02-18T02:47:39;210.43;;;71.20;;
4744;SDS011;2386;42.138;24.746;2023-02-18T02:50:13;213.83;;;69.37;;
4744;SDS011;2386;42.138;24.746;2023-02-18T02:52:46;208.90;;;68.57;;
4744;SDS011;2386;42.138;24.746;2023-02-18T02:55:16;203.80;;;67.30;;
4744;SDS011;2386;42.138;24.746;2023-02-18T03:00:16;217.73;;;68.80;;
4744;SDS011;2386;42.138;24.746;2023-02-18T03:16:25;220.37;;;69.73;;
4744;SDS011;2386;42.138;24.746;2023-02-18T03:21:44;220.63;;;70.97;;
4744;SDS011;2386;42.138;24.746;2023-02-18T03:24:38;219.27;;;70.70;;
4744;SDS011;2386;42.138;24.746;2023-02-18T03:27:11;217.40;;;68.70;;
4744;SDS011;2386;42.138;24.746;2023-02-18T03:29:40;218.80;;;71.17;;
4744;SDS011;2386;42.138;24.746;2023-02-18T03:32:08;240.90;;;78.90;;
4744;SDS011;2386;42.138;24.746;2023-02-18T03:34:39;238.40;;;78.73;;
4744;SDS011;2386;42.138;24.746;2023-02-18T03:37:08;224.87;;;71.90;;
4744;SDS011;2386;42.138;24.746;2023-02-18T03:39:34;226.03;;;72.53;;
4744;SDS011;2386;42.138;24.746;2023-02-18T03:42:01;235.73;;;74.90;;
4744;SDS011;2386;42.138;24.746;2023-02-18T03:44:27;241.83;;;77.67;;
4744;SDS011;2386;42.138;24.746;2023-02-18T03:46:54;204.60;;;71.27;;
4744;SDS011;2386;42.138;24.746;2023-02-18T03:49:20;222.93;;;79.53;;
4744;SDS011;2386;42.138;24.746;2023-02-18T03:51:45;219.03;;;75.43;;
4744;SDS011;2386;42.138;24.746;2023-02-18T03:54:11;220.17;;;75.20;;
4744;SDS011;2386;42.138;24.746;2023-02-18T03:56:38;229.17;;;78.20;;
4744;SDS011;2386;42.138;24.746;2023-02-18T03:59:05;231.10;;;80.93;;
4744;SDS011;2386;42.138;24.746;2023-02-18T04:01:31;233.97;;;80.67;;
4744;SDS011;2386;42.138;24.746;2023-02-18T04:03:56;233.47;;;80.57;;
4744;SDS011;2386;42.138;24.746;2023-02-18T04:06:22;224.77;;;77.00;;
4744;SDS011;2386;42.138;24.746;2023-02-18T04:08:47;242.13;;;80.07;;
4744;SDS011;2386;42.138;24.746;2023-02-18T04:11:13;227.70;;;77.07;;
4744;SDS011;2386;42.138;24.746;2023-02-18T04:13:39;243.30;;;80.73;;
4744;SDS011;2386;42.138;24.746;2023-02-18T04:16:04;233.87;;;78.37;;
4744;SDS011;2386;42.138;24.746;2023-02-18T04:18:30;237.07;;;78.17;;
4744;SDS011;2386;42.138;24.746;2023-02-18T04:20:55;239.43;;;75.47;;
4744;SDS011;2386;42.138;24.746;2023-02-18T04:23:21;240.67;;;77.43;;
4744;SDS011;2386;42.138;24.746;2023-02-18T04:25:46;256.43;;;80.77;;
4744;SDS011;2386;42.138;24.746;2023-02-18T04:28:12;264.53;;;82.90;;
4744;SDS011;2386;42.138;24.746;2023-02-18T04:30:39;252.77;;;80.50;;
4744;SDS011;2386;42.138;24.746;2023-02-18T04:33:05;263.03;;;81.97;;
4744;SDS011;2386;42.138;24.746;2023-02-18T04:35:31;263.67;;;85.97;;
4744;SDS011;2386;42.138;24.746;2023-02-18T04:37:56;257.73;;;83.50;;
4744;SDS011;2386;42.138;24.746;2023-02-18T04:40:22;246.47;;;80.57;;
4744;SDS011;2386;42.138;24.746;2023-02-18T04:42:49;250.10;;;80.90;;
4744;SDS011;2386;42.138;24.746;2023-02-18T04:45:14;247.50;;;83.40;;
4744;SDS011;2386;42.138;24.746;2023-02-18T04:47:40;250.07;;;85.30;;
4744;SDS011;2386;42.138;24.746;2023-02-18T04:50:05;245.57;;;84.60;;
4744;SDS011;2386;42.138;24.746;2023-02-18T04:52:31;234.50;;;83.30;;
4744;SDS011;2386;42.138;24.746;2023-02-18T04:54:57;232.37;;;83.00;;
4744;SDS011;2386;42.138;24.746;2023-02-18T04:57:22;231.33;;;83.63;;
4744;SDS011;2386;42.138;24.746;2023-02-18T04:59:48;239.73;;;84.87;;
4744;SDS011;2386;42.138;24.746;2023-02-18T05:02:13;249.57;;;89.70;;
4744;SDS011;2386;42.138;24.746;2023-02-18T05:04:38;254.87;;;90.53;;
4744;SDS011;2386;42.138;24.746;2023-02-18T05:07:04;238.77;;;83.03;;
4744;SDS011;2386;42.138;24.746;2023-02-18T05:09:29;266.63;;;89.70;;
4744;SDS011;2386;42.138;24.746;2023-02-18T05:11:55;242.30;;;86.37;;
4744;SDS011;2386;42.138;24.746;2023-02-18T05:14:20;241.53;;;86.00;;
4744;SDS011;2386;42.138;24.746;2023-02-18T05:16:46;228.63;;;83.33;;
4744;SDS011;2386;42.138;24.746;2023-02-18T05:19:15;246.87;;;85.97;;
4744;SDS011;2386;42.138;24.746;2023-02-18T05:21:41;248.10;;;83.80;;
4744;SDS011;2386;42.138;24.746;2023-02-18T05:24:07;234.93;;;78.27;;
4744;SDS011;2386;42.138;24.746;2023-02-18T05:26:33;248.03;;;82.83;;
4744;SDS011;2386;42.138;24.746;2023-02-18T05:28:58;241.23;;;81.87;;
4744;SDS011;2386;42.138;24.746;2023-02-18T05:31:24;242.40;;;81.93;;
4744;SDS011;2386;42.138;24.746;2023-02-18T05:33:50;263.47;;;83.77;;
4744;SDS011;2386;42.138;24.746;2023-02-18T05:36:15;258.67;;;87.10;;
4744;SDS011;2386;42.138;24.746;2023-02-18T05:38:41;249.00;;;83.43;;
4744;SDS011;2386;42.138;24.746;2023-02-18T05:41:06;264.80;;;85.10;;
4744;SDS011;2386;42.138;24.746;2023-02-18T05:43:31;260.90;;;86.50;;
4744;SDS011;2386;42.138;24.746;2023-02-18T05:46:17;270.10;;;86.63;;
4744;SDS011;2386;42.138;24.746;2023-02-18T05:48:42;269.07;;;88.40;;
4744;SDS011;2386;42.138;24.746;2023-02-18T05:51:08;270.47;;;85.90;;
4744;SDS011;2386;42.138;24.746;2023-02-18T05:53:33;297.37;;;89.70;;
4744;SDS011;2386;42.138;24.746;2023-02-18T05:55:58;261.33;;;86.40;;
4744;SDS011;2386;42.138;24.746;2023-02-18T05:58:24;269.97;;;90.33;;
4744;SDS011;2386;42.138;24.746;2023-02-18T06:00:49;240.37;;;81.43;;
4744;SDS011;2386;42.138;24.746;2023-02-18T06:03:15;261.37;;;86.57;;
4744;SDS011;2386;42.138;24.746;2023-02-18T06:05:40;265.00;;;90.17;;
4744;SDS011;2386;42.138;24.746;2023-02-18T06:08:05;247.57;;;88.20;;
4744;SDS011;2386;42.138;24.746;2023-02-18T06:10:31;243.10;;;80.37;;
4744;SDS011;2386;42.138;24.746;2023-02-18T06:12:56;245.10;;;83.00;;
4744;SDS011;2386;42.138;24.746;2023-02-18T06:15:21;253.60;;;85.70;;
4744;SDS011;2386;42.138;24.746;2023-02-18T06:17:47;242.07;;;83.67;;
4744;SDS011;2386;42.138;24.746;2023-02-18T06:20:12;244.50;;;82.63;;
4744;SDS011;2386;42.138;24.746;2023-02-18T06:22:37;252.23;;;80.10;;
4744;SDS011;2386;42.138;24.746;2023-02-18T06:25:03;244.57;;;83.97;;
4744;SDS011;2386;42.138;24.746;2023-02-18T06:27:28;236.37;;;80.17;;
4744;SDS011;2386;42.138;24.746;2023-02-18T06:29:54;250.37;;;83.97;;
4744;SDS011;2386;42.138;24.746;2023-02-18T06:32:19;260.20;;;85.53;;
4744;SDS011;2386;42.138;24.746;2023-02-18T06:34:45;236.03;;;78.63;;
4744;SDS011;2386;42.138;24.746;2023-02-18T06:37:10;242.00;;;82.43;;
4744;SDS011;2386;42.138;24.746;2023-02-18T06:39:35;247.23;;;84.13;;
4744;SDS011;2386;42.138;24.746;2023-02-18T06:42:02;251.57;;;80.37;;
4744;SDS011;2386;42.138;24.746;2023-02-18T06:44:28;241.00;;;79.60;;
4744;SDS011;2386;42.138;24.746;2023-02-18T06:46:53;258.10;;;81.63;;
4744;SDS011;2386;42.138;24.746;2023-02-18T06:49:18;260.50;;;82.17;;
4744;SDS011;2386;42.138;24.746;2023-02-18T06:51:44;252.57;;;80.97;;
4744;SDS011;2386;42.138;24.746;2023-02-18T06:54:09;247.50;;;81.47;;
4744;SDS011;2386;42.138;24.746;2023-02-18T06:56:35;204.33;;;72.97;;
4744;SDS011;2386;42.138;24.746;2023-02-18T06:59:00;231.60;;;85.33;;
4744;SDS011;2386;42.138;24.746;2023-02-18T07:01:25;223.80;;;86.73;;
4744;SDS011;2386;42.138;24.746;2023-02-18T07:03:51;243.10;;;86.27;;
4744;SDS011;2386;42.138;24.746;2023-02-18T07:06:16;236.67;;;89.17;;
4744;SDS011;2386;42.138;24.746;2023-02-18T07:08:41;243.80;;;91.67;;
4744;SDS011;2386;42.138;24.746;2023-02-18T07:11:07;263.47;;;93.93;;
4744;SDS011;2386;42.138;24.746;2023-02-18T07:13:32;261.47;;;96.57;;
4744;SDS011;2386;42.138;24.746;2023-02-18T07:15:58;258.27;;;97.03;;
4744;SDS011;2386;42.138;24.746;2023-02-18T07:18:23;294.93;;;98.47;;
4744;SDS011;2386;42.138;24.746;2023-02-18T07:20:49;284.30;;;101.87;;
4744;SDS011;2386;42.138;24.746;2023-02-18T07:23:14;285.83;;;104.07;;
4744;SDS011;2386;42.138;24.746;2023-02-18T07:25:39;278.10;;;100.33;;
4744;SDS011;2386;42.138;24.746;2023-02-18T07:28:05;288.53;;;103.80;;
4744;SDS011;2386;42.138;24.746;2023-02-18T07:30:31;283.90;;;102.70;;
4744;SDS011;2386;42.138;24.746;2023-02-18T07:32:56;289.10;;;104.63;;
4744;SDS011;2386;42.138;24.746;2023-02-18T07:35:21;281.47;;;104.43;;
4744;SDS011;2386;42.138;24.746;2023-02-18T07:37:47;284.83;;;103.17;;
4744;SDS011;2386;42.138;24.746;2023-02-18T07:40:15;277.57;;;100.17;;
4744;SDS011;2386;42.138;24.746;2023-02-18T07:42:42;283.97;;;109.10;;
4744;SDS011;2386;42.138;24.746;2023-02-18T07:45:08;275.27;;;107.33;;
4744;SDS011;2386;42.138;24.746;2023-02-18T07:47:34;282.10;;;111.23;;
4744;SDS011;2386;42.138;24.746;2023-02-18T07:49:59;290.47;;;111.97;;
4744;SDS011;2386;42.138;24.746;2023-02-18T07:52:25;293.87;;;116.23;;
4744;SDS011;2386;42.138;24.746;2023-02-18T07:54:50;275.83;;;106.23;;
4744;SDS011;2386;42.138;24.746;2023-02-18T07:57:16;269.93;;;104.87;;
4744;SDS011;2386;42.138;24.746;2023-02-18T07:59:41;267.80;;;104.80;;
4744;SDS011;2386;42.138;24.746;2023-02-18T08:02:08;291.10;;;111.33;;
4744;SDS011;2386;42.138;24.746;2023-02-18T08:04:43;255.20;;;101.90;;
4744;SDS011;2386;42.138;24.746;2023-02-18T08:07:11;274.63;;;107.57;;
4744;SDS011;2386;42.138;24.746;2023-02-18T08:09:38;288.50;;;111.33;;
4744;SDS011;2386;42.138;24.746;2023-02-18T08:12:03;284.80;;;112.10;;
4744;SDS011;2386;42.138;24.746;2023-02-18T08:14:29;280.77;;;112.37;;
4744;SDS011;2386;42.138;24.746;2023-02-18T08:16:54;293.17;;;118.70;;
4744;SDS011;2386;42.138;24.746;2023-02-18T08:19:20;293.13;;;118.20;;
4744;SDS011;2386;42.138;24.746;2023-02-18T08:21:45;289.60;;;118.33;;
4744;SDS011;2386;42.138;24.746;2023-02-18T08:24:10;304.60;;;122.90;;
4744;SDS011;2386;42.138;24.746;2023-02-18T08:26:36;297.27;;;122.57;;
4744;SDS011;2386;42.138;24.746;2023-02-18T08:29:01;294.30;;;122.80;;
4744;SDS011;2386;42.138;24.746;2023-02-18T08:31:27;296.57;;;122.50;;
4744;SDS011;2386;42.138;24.746;2023-02-18T08:33:54;310.60;;;123.50;;
4744;SDS011;2386;42.138;24.746;2023-02-18T08:36:21;290.33;;;120.73;;
4744;SDS011;2386;42.138;24.746;2023-02-18T08:38:47;286.23;;;121.37;;
4744;SDS011;2386;42.138;24.746;2023-02-18T08:41:13;292.30;;;124.33;;
4744;SDS011;2386;42.138;24.746;2023-02-18T08:43:40;292.30;;;127.13;;
4744;SDS011;2386;42.138;24.746;2023-02-18T08:46:05;310.63;;;131.67;;
4744;SDS011;2386;42.138;24.746;2023-02-18T08:48:31;329.73;;;138.47;;
4744;SDS011;2386;42.138;24.746;2023-02-18T08:50:57;297.10;;;132.40;;
4744;SDS011;2386;42.138;24.746;2023-02-18T08:53:23;304.90;;;131.83;;
4744;SDS011;2386;42.138;24.746;2023-02-18T08:55:48;304.67;;;136.90;;
4744;SDS011;2386;42.138;24.746;2023-02-18T08:58:14;309.00;;;138.07;;
4744;SDS011;2386;42.138;24.746;2023-02-18T09:00:40;313.20;;;141.47;;
4744;SDS011;2386;42.138;24.746;2023-02-18T09:03:06;310.30;;;143.73;;
4744;SDS011;2386;42.138;24.746;2023-02-18T09:05:32;300.63;;;140.63;;
4744;SDS011;2386;42.138;24.746;2023-02-18T09:07:57;323.07;;;151.00;;
4744;SDS011;2386;42.138;24.746;2023-02-18T09:10:23;338.30;;;156.63;;
4744;SDS011;2386;42.138;24.746;2023-02-18T09:12:49;336.00;;;154.33;;
4744;SDS011;2386;42.138;24.746;2023-02-18T09:15:14;336.37;;;152.00;;
4744;SDS011;2386;42.138;24.746;2023-02-18T09:17:40;381.40;;;198.03;;
4744;SDS011;2386;42.138;24.746;2023-02-18T09:20:05;297.23;;;148.70;;
4744;SDS011;2386;42.138;24.746;2023-02-18T09:22:32;306.30;;;157.93;;
4744;SDS011;2386;42.138;24.746;2023-02-18T09:24:57;302.93;;;148.87;;
4744;SDS011;2386;42.138;24.746;2023-02-18T09:27:23;335.87;;;158.73;;
4744;SDS011;2386;42.138;24.746;2023-02-18T09:29:49;316.73;;;147.87;;
4744;SDS011;2386;42.138;24.746;2023-02-18T09:32:15;335.63;;;162.10;;
4744;SDS011;2386;42.138;24.746;2023-02-18T09:34:42;330.10;;;161.00;;
4744;SDS011;2386;42.138;24.746;2023-02-18T09:37:08;319.27;;;151.63;;
4744;SDS011;2386;42.138;24.746;2023-02-18T09:39:33;314.57;;;152.90;;
4744;SDS011;2386;42.138;24.746;2023-02-18T09:42:01;335.00;;;161.40;;
4744;SDS011;2386;42.138;24.746;2023-02-18T09:49:39;316.17;;;157.77;;
4744;SDS011;2386;42.138;24.746;2023-02-18T09:52:12;339.17;;;161.93;;
4744;SDS011;2386;42.138;24.746;2023-02-18T09:54:41;535.23;;;333.63;;
4744;SDS011;2386;42.138;24.746;2023-02-18T09:57:14;365.43;;;197.80;;
4744;SDS011;2386;42.138;24.746;2023-02-18T10:00:05;348.40;;;172.27;;
4744;SDS011;2386;42.138;24.746;2023-02-18T10:02:36;355.17;;;172.63;;
4744;SDS011;2386;42.138;24.746;2023-02-18T10:05:05;357.67;;;172.47;;
4744;SDS011;2386;42.138;24.746;2023-02-18T10:07:36;369.30;;;186.40;;
4744;SDS011;2386;42.138;24.746;2023-02-18T10:10:17;329.40;;;181.27;;
4744;SDS011;2386;42.138;24.746;2023-02-18T10:12:43;340.47;;;174.87;;
4744;SDS011;2386;42.138;24.746;2023-02-18T10:15:09;352.80;;;181.47;;
4744;SDS011;2386;42.138;24.746;2023-02-18T10:17:44;356.70;;;178.73;;
4744;SDS011;2386;42.138;24.746;2023-02-18T10:20:14;367.33;;;195.50;;
4744;SDS011;2386;42.138;24.746;2023-02-18T10:22:44;353.63;;;195.47;;
4744;SDS011;2386;42.138;24.746;2023-02-18T10:25:14;366.87;;;203.93;;
4744;SDS011;2386;42.138;24.746;2023-02-18T10:27:43;345.90;;;196.67;;
4744;SDS011;2386;42.138;24.746;2023-02-18T10:32:47;362.80;;;200.67;;
4744;SDS011;2386;42.138;24.746;2023-02-18T10:35:37;370.87;;;219.03;;
4744;SDS011;2386;42.138;24.746;2023-02-18T10:38:17;359.97;;;209.83;;
4744;SDS011;2386;42.138;24.746;2023-02-18T10:51:53;369.97;;;200.67;;
4744;SDS011;2386;42.138;24.746;2023-02-18T10:54:25;368.10;;;194.00;;
4744;SDS011;2386;42.138;24.746;2023-02-18T10:56:52;381.97;;;205.27;;
4744;SDS011;2386;42.138;24.746;2023-02-18T10:59:26;381.80;;;202.17;;
4744;SDS011;2386;42.138;24.746;2023-02-18T11:01:58;388.93;;;204.60;;
4744;SDS011;2386;42.138;24.746;2023-02-18T11:04:36;395.23;;;208.47;;
4744;SDS011;2386;42.138;24.746;2023-02-18T11:07:14;380.87;;;206.63;;
4744;SDS011;2386;42.138;24.746;2023-02-18T11:12:21;392.80;;;221.73;;
4744;SDS011;2386;42.138;24.746;2023-02-18T11:15:14;404.77;;;227.13;;
4744;SDS011;2386;42.138;24.746;2023-02-18T11:17:42;412.13;;;225.37;;
4744;SDS011;2386;42.138;24.746;2023-02-18T11:20:27;388.40;;;216.03;;
4744;SDS011;2386;42.138;24.746;2023-02-18T11:26:03;402.70;;;216.40;;
4744;SDS011;2386;42.138;24.746;2023-02-18T11:31:05;411.10;;;212.70;;
4744;SDS011;2386;42.138;24.746;2023-02-18T11:36:27;403.27;;;218.77;;
4744;SDS011;2386;42.138;24.746;2023-02-18T11:38:55;413.73;;;226.73;;
4744;SDS011;2386;42.138;24.746;2023-02-18T11:43:56;417.57;;;238.03;;
4744;SDS011;2386;42.138;24.746;2023-02-18T11:46:23;414.60;;;232.93;;
4744;SDS011;2386;42.138;24.746;2023-02-18T11:48:50;417.33;;;248.20;;
4744;SDS011;2386;42.138;24.746;2023-02-18T11:51:27;405.70;;;229.53;;
4744;SDS011;2386;42.138;24.746;2023-02-18T11:54:04;404.80;;;236.53;;
4744;SDS011;2386;42.138;24.746;2023-02-18T11:56:45;410.07;;;248.77;;
4744;SDS011;2386;42.138;24.746;2023-02-18T11:59:29;411.43;;;238.13;;
4744;SDS011;2386;42.138;24.746;2023-02-18T12:07:29;397.47;;;245.97;;
4744;SDS011;2386;42.138;24.746;2023-02-18T12:10:04;401.90;;;247.63;;
4744;SDS011;2386;42.138;24.746;2023-02-18T12:12:48;401.10;;;248.57;;
4744;SDS011;2386;42.138;24.746;2023-02-18T12:15:42;423.33;;;260.60;;
4744;SDS011;2386;42.138;24.746;2023-02-18T12:23:56;422.67;;;269.90;;
4744;SDS011;2386;42.138;24.746;2023-02-18T12:26:31;405.37;;;254.43;;
4744;SDS011;2386;42.138;24.746;2023-02-18T12:31:52;408.57;;;262.93;;
4744;SDS011;2386;42.138;24.746;2023-02-18T12:34:36;412.47;;;268.33;;
4744;SDS011;2386;42.138;24.746;2023-02-18T12:49:01;391.83;;;259.00;;
4744;SDS011;2386;42.138;24.746;2023-02-18T12:51:56;409.40;;;267.63;;
4744;SDS011;2386;42.138;24.746;2023-02-18T12:54:42;383.17;;;252.83;;
4744;SDS011;2386;42.138;24.746;2023-02-18T13:00:15;390.43;;;261.27;;
4744;SDS011;2386;42.138;24.746;2023-02-18T13:14:10;382.27;;;256.17;;
4744;SDS011;2386;42.138;24.746;2023-02-18T13:16:41;382.70;;;257.97;;
4744;SDS011;2386;42.138;24.746;2023-02-18T13:21:40;395.40;;;263.07;;
4744;SDS011;2386;42.138;24.746;2023-02-18T13:24:12;404.37;;;274.13;;
4744;SDS011;2386;42.138;24.746;2023-02-18T13:26:43;395.53;;;265.03;;
4744;SDS011;2386;42.138;24.746;2023-02-18T13:34:51;408.30;;;260.20;;
4744;SDS011;2386;42.138;24.746;2023-02-18T13:37:34;391.80;;;264.37;;
4744;SDS011;2386;42.138;24.746;2023-02-18T13:42:43;386.37;;;256.13;;
4744;SDS011;2386;42.138;24.746;2023-02-18T13:45:25;388.53;;;257.93;;
4744;SDS011;2386;42.138;24.746;2023-02-18T13:47:53;386.03;;;250.33;;
4744;SDS011;2386;42.138;24.746;2023-02-18T13:52:50;390.63;;;266.20;;
4744;SDS011;2386;42.138;24.746;2023-02-18T13:55:41;398.57;;;250.17;;
4744;SDS011;2386;42.138;24.746;2023-02-18T13:58:21;391.80;;;259.17;;
4744;SDS011;2386;42.138;24.746;2023-02-18T14:00:52;396.70;;;247.80;;
4744;SDS011;2386;42.138;24.746;2023-02-18T14:03:32;398.97;;;264.80;;
4744;SDS011;2386;42.138;24.746;2023-02-18T14:06:00;408.27;;;253.47;;
4744;SDS011;2386;42.138;24.746;2023-02-18T14:08:37;405.77;;;258.13;;
4744;SDS011;2386;42.138;24.746;2023-02-18T14:13:54;387.13;;;248.87;;
4744;SDS011;2386;42.138;24.746;2023-02-18T14:19:37;398.00;;;253.40;;
4744;SDS011;2386;42.138;24.746;2023-02-18T14:22:25;402.80;;;256.97;;
4744;SDS011;2386;42.138;24.746;2023-02-18T14:25:03;380.90;;;253.63;;
4744;SDS011;2386;42.138;24.746;2023-02-18T14:27:40;402.77;;;250.90;;
4744;SDS011;2386;42.138;24.746;2023-02-18T14:32:51;408.87;;;252.97;;
4744;SDS011;2386;42.138;24.746;2023-02-18T14:48:38;403.20;;;248.40;;
4744;SDS011;2386;42.138;24.746;2023-02-18T14:51:13;413.97;;;247.70;;
4744;SDS011;2386;42.138;24.746;2023-02-18T14:53:44;403.73;;;244.80;;
4744;SDS011;2386;42.138;24.746;2023-02-18T14:56:17;400.73;;;241.53;;
4744;SDS011;2386;42.138;24.746;2023-02-18T14:58:55;407.83;;;245.67;;
4744;SDS011;2386;42.138;24.746;2023-02-18T15:01:30;395.07;;;231.00;;
4744;SDS011;2386;42.138;24.746;2023-02-18T15:03:57;400.40;;;234.13;;
4744;SDS011;2386;42.138;24.746;2023-02-18T15:08:53;390.60;;;237.40;;
4744;SDS011;2386;42.138;24.746;2023-02-18T15:11:20;390.13;;;233.73;;
4744;SDS011;2386;42.138;24.746;2023-02-18T15:13:48;408.70;;;235.37;;
4744;SDS011;2386;42.138;24.746;2023-02-18T15:16:34;393.03;;;224.07;;
4744;SDS011;2386;42.138;24.746;2023-02-18T15:19:01;392.63;;;234.67;;
4744;SDS011;2386;42.138;24.746;2023-02-18T15:21:30;396.83;;;230.63;;
4744;SDS011;2386;42.138;24.746;2023-02-18T15:24:09;395.03;;;228.10;;
4744;SDS011;2386;42.138;24.746;2023-02-18T15:26:42;397.53;;;224.40;;
4744;SDS011;2386;42.138;24.746;2023-02-18T15:29:18;410.77;;;232.10;;
4744;SDS011;2386;42.138;24.746;2023-02-18T15:31:46;391.47;;;231.73;;
4744;SDS011;2386;42.138;24.746;2023-02-18T15:36:50;380.13;;;217.90;;
4744;SDS011;2386;42.138;24.746;2023-02-18T15:39:16;389.40;;;228.93;;
4744;SDS011;2386;42.138;24.746;2023-02-18T15:41:42;391.70;;;222.43;;
4744;SDS011;2386;42.138;24.746;2023-02-18T15:44:07;403.83;;;230.17;;
4744;SDS011;2386;42.138;24.746;2023-02-18T15:46:42;406.70;;;224.47;;
4744;SDS011;2386;42.138;24.746;2023-02-18T15:49:08;408.70;;;240.53;;
4744;SDS011;2386;42.138;24.746;2023-02-18T15:51:33;403.60;;;227.83;;
4744;SDS011;2386;42.138;24.746;2023-02-18T15:53:59;407.97;;;224.87;;
4744;SDS011;2386;42.138;24.746;2023-02-18T15:56:36;402.37;;;229.00;;
4744;SDS011;2386;42.138;24.746;2023-02-18T16:01:56;392.17;;;213.07;;
4744;SDS011;2386;42.138;24.746;2023-02-18T16:04:28;372.33;;;200.70;;
4744;SDS011;2386;42.138;24.746;2023-02-18T16:06:56;395.93;;;207.17;;
4744;SDS011;2386;42.138;24.746;2023-02-18T16:09:31;379.03;;;220.50;;
4744;SDS011;2386;42.138;24.746;2023-02-18T16:11:59;368.67;;;214.43;;
4744;SDS011;2386;42.138;24.746;2023-02-18T16:14:32;388.67;;;219.67;;
4744;SDS011;2386;42.138;24.746;2023-02-18T16:19:47;390.60;;;203.77;;
4744;SDS011;2386;42.138;24.746;2023-02-18T16:22:25;390.23;;;202.70;;
4744;SDS011;2386;42.138;24.746;2023-02-18T16:25:47;389.93;;;207.27;;
4744;SDS011;2386;42.138;24.746;2023-02-18T16:27:52;369.60;;;198.27;;
4744;SDS011;2386;42.138;24.746;2023-02-18T16:30:25;381.33;;;199.47;;
4744;SDS011;2386;42.138;24.746;2023-02-18T16:32:53;365.47;;;194.57;;
4744;SDS011;2386;42.138;24.746;2023-02-18T16:35:20;387.77;;;195.13;;
4744;SDS011;2386;42.138;24.746;2023-02-18T16:37:46;389.60;;;200.43;;
4744;SDS011;2386;42.138;24.746;2023-02-18T16:43:00;364.67;;;181.73;;
4744;SDS011;2386;42.138;24.746;2023-02-18T16:45:31;367.40;;;179.47;;
4744;SDS011;2386;42.138;24.746;2023-02-18T16:47:59;359.40;;;173.93;;
4744;SDS011;2386;42.138;24.746;2023-02-18T16:50:24;355.43;;;175.93;;
4744;SDS011;2386;42.138;24.746;2023-02-18T16:52:53;358.57;;;177.30;;
4744;SDS011;2386;42.138;24.746;2023-02-18T16:55:20;363.90;;;178.40;;
4744;SDS011;2386;42.138;24.746;2023-02-18T16:57:47;358.37;;;173.17;;
4744;SDS011;2386;42.138;24.746;2023-02-18T17:00:13;360.30;;;181.33;;
4744;SDS011;2386;42.138;24.746;2023-02-18T17:02:40;360.67;;;173.00;;
4744;SDS011;2386;42.138;24.746;2023-02-18T17:05:09;371.10;;;177.93;;
4744;SDS011;2386;42.138;24.746;2023-02-18T17:07:40;364.40;;;167.13;;
4744;SDS011;2386;42.138;24.746;2023-02-18T17:10:06;379.30;;;182.70;;